TAF and METAR

METAR for Inca Manco Capac Airport

SPJL 161200Z 26007KT CAVOK M02/M12 Q1039 RMK PP000
Report created 16. aug 14:00
wind 7 knots from W (260°) Clear sky Temperature -2° with dewpoint at -12° (Humidity 46.23%) Pressure 1039 hPa

TAF for Inca Manco Capac Airport

TAF SPJL 161115Z 1612/1712 VRB05KT CAVOK TX17/1619Z TNM04/1710Z FM162100 10008KT CAVOK FM170100 VRB05KT CAVOK
Report created 16. aug 13:15

between 16. aug 14:00 - 17. aug 14:00

wind 5 knots from various directions Clear sky Max temperature 17° expected today at around 21 o'clock Min temperature -04° expected tomorrow at around 12 o'clock

From 16. aug 23:00

wind 8 knots from E (100°) Clear sky

From 17. aug 03:00

wind 5 knots from various directions Clear sky